simon Lamba 35x1111m/r BikeErg

38,885

Meters

1:29:54.4

Time

2:18.7

Pace

1106

Calories

Rest Distance23
Rest Time
Overall Distance38,908
Overall Time1:29:54.4
Average Watts131
Calories Per Hour738
RPM69
Revolution Count6276
Power/kg1.31
Drag Factor80

October 02, 2024 18:12:00

Workout
BikeErg

Workout Type
Interval:Distance

Verified
No

Entered
ErgData iOS

Intervals

Time Meters Pace Watts Cal/Hr RPM
1:29:54.4 38,885 2:18.7 131 738 69
2:40.1 1,111 2:24.1 117 697 67
2:40.3 1,111 2:24.2 117 696 67
2:40.3 1,111 2:24.2 117 696 67
2:40.5 1,111 2:24.4 116 695 67
2:40.5 1,111 2:24.4 116 695 67
2:40.4 1,111 2:24.3 116 695 67
2:40.0 1,111 2:24.0 117 697 67
2:40.2 1,111 2:24.1 117 696 67
2:40.1 1,111 2:24.1 117 697 67
2:40.3 1,111 2:24.2 117 696 67
2:35.7 1,111 2:20.1 127 716 69
2:35.6 1,111 2:20.0 127 717 69
2:35.6 1,111 2:20.0 127 717 69
2:35.8 1,111 2:20.2 127 716 69
2:35.9 1,111 2:20.3 127 715 69
2:35.4 1,111 2:19.8 128 718 69
2:36.0 1,111 2:20.4 126 715 69
2:35.7 1,111 2:20.1 127 716 69
2:35.3 1,111 2:19.7 128 718 70
2:35.0 1,111 2:19.5 129 743 69
2:31.0 1,111 2:15.9 139 762 71
2:30.7 1,111 2:15.6 140 764 71
2:30.9 1,111 2:15.8 140 763 71
2:33.0 1,111 2:17.7 134 752 70
2:30.7 1,111 2:15.6 140 764 71
2:29.7 1,111 2:14.7 143 769 72
2:30.8 1,111 2:15.7 140 763 72
2:30.9 1,111 2:15.8 140 763 71
2:30.4 1,111 2:15.3 141 765 72
2:30.2 1,111 2:15.1 142 766 72
2:25.5 1,111 2:10.9 156 816 74
2:25.1 1,111 2:10.6 157 818 74
2:26.3 1,111 2:11.6 153 812 74
2:25.4 1,111 2:10.8 156 817 74
2:25.1 1,111 2:10.6 157 818 74
r23

Click on an interval to see the workout graph.

Click and drag on the graph to zoom in on a section.

Workout Graph

Loading data.